Time;durP1;ratioP1;P1;durP2;ratioP2;P2;SDS_P1;SDS_P2;PMS_P1;PMS_P2;Temp;Humidity;BMP_temperature;BMP_pressure;BME280_temperature;BME280_humidity;BME280_pressure;Samples;Min_cycle;Max_cycle;Signal;HPM_P1;HPM_P2
2023/10/15 00:01:33;;;;;;;8.67;2.37;;;9.40;99.90;;;;;;4956764;29;20055;-73
2023/10/15 00:03:58;;;;;;;11.10;2.00;;;9.40;99.90;;;;;;4956703;29;20047;-73
2023/10/15 00:06:24;;;;;;;9.57;2.40;;;9.40;99.90;;;;;;4957176;28;20135;-73
2023/10/15 00:08:50;;;;;;;9.73;2.10;;;9.40;99.90;;;;;;4956675;28;20080;-73
2023/10/15 00:11:21;;;;;;;7.17;1.50;;;9.40;99.90;;;;;;4955912;29;20051;-73
2023/10/15 00:13:48;;;;;;;8.47;1.67;;;9.30;99.90;;;;;;4956604;28;20135;-73
2023/10/15 00:16:21;;;;;;;8.93;2.20;;;9.30;99.90;;;;;;4956677;28;20283;-73
2023/10/15 00:18:46;;;;;;;9.50;1.70;;;9.30;99.90;;;;;;4956597;28;20282;-73
2023/10/15 00:21:12;;;;;;;8.20;2.13;;;9.30;99.90;;;;;;4955726;29;20706;-73
2023/10/15 00:23:43;;;;;;;8.40;1.90;;;9.30;99.90;;;;;;4955273;29;20051;-73
2023/10/15 00:26:14;;;;;;;5.83;1.30;;;9.20;99.90;;;;;;4956519;28;20047;-73
2023/10/15 00:28:40;;;;;;;6.87;1.70;;;9.30;99.90;;;;;;4956265;28;20275;-73
2023/10/15 00:31:10;;;;;;;7.30;1.60;;;9.20;99.90;;;;;;4956471;28;20287;-73
2023/10/15 00:33:39;;;;;;;5.77;1.40;;;9.20;99.90;;;;;;4956565;28;20275;-74
2023/10/15 00:36:05;;;;;;;9.57;1.30;;;9.20;99.90;;;;;;4956833;28;20374;-74
2023/10/15 00:38:31;;;;;;;6.67;1.47;;;9.20;99.90;;;;;;4956501;28;20377;-73
2023/10/15 00:41:00;;;;;;;6.33;1.40;;;9.20;99.90;;;;;;4956166;29;20390;-73
2023/10/15 00:43:30;;;;;;;7.77;1.40;;;9.30;99.90;;;;;;4956099;28;20050;-74
2023/10/15 00:45:59;;;;;;;10.77;1.30;;;9.20;99.90;;;;;;4955588;28;20363;-73
2023/10/15 00:48:28;;;;;;;12.53;1.47;;;9.30;99.90;;;;;;4956337;28;20358;-73
2023/10/15 00:50:55;;;;;;;6.00;1.57;;;9.30;99.90;;;;;;4955952;28;20281;-73
2023/10/15 00:53:26;;;;;;;8.73;1.50;;;9.30;99.90;;;;;;4956224;28;20362;-73
2023/10/15 00:56:05;;;;;;;9.90;1.50;;;9.30;99.90;;;;;;4955769;28;20315;-73
2023/10/15 01:02:03;;;;;;;8.80;1.80;;;9.40;99.90;;;;;;4955810;28;20361;-73
2023/10/15 01:03:59;;;;;;;10.60;2.10;;;9.40;99.90;;;;;;4946549;29;20362;-73
2023/10/15 01:06:40;;;;;;;12.43;2.27;;;9.40;99.90;;;;;;4955760;28;20295;-72
2023/10/15 01:09:27;;;;;;;9.13;1.70;;;9.40;99.90;;;;;;4954708;29;20348;-73
2023/10/15 01:11:56;;;;;;;9.83;1.97;;;9.40;99.90;;;;;;4955523;28;20295;-73
2023/10/15 01:14:32;;;;;;;8.43;2.83;;;9.30;99.90;;;;;;4955762;28;20370;-73
2023/10/15 01:17:01;;;;;;;6.87;2.03;;;9.30;99.90;;;;;;4955597;28;20286;-73
2023/10/15 01:19:34;;;;;;;10.00;1.97;;;9.20;99.90;;;;;;4955887;28;20683;-74
2023/10/15 01:22:17;;;;;;;8.83;1.33;;;9.20;99.90;;;;;;4955205;28;20302;-73
2023/10/15 01:24:45;;;;;;;8.80;1.93;;;9.10;99.90;;;;;;4955470;28;20323;-73
2023/10/15 01:27:11;;;;;;;7.27;2.00;;;9.10;99.90;;;;;;4955396;28;20282;-74
2023/10/15 01:29:42;;;;;;;9.77;1.47;;;9.10;99.90;;;;;;4954657;29;20291;-74
2023/10/15 01:32:14;;;;;;;15.03;2.10;;;9.10;99.90;;;;;;4955424;28;20285;-73
2023/10/15 01:34:44;;;;;;;7.93;1.43;;;9.00;99.90;;;;;;4955566;28;20279;-73
2023/10/15 01:37:36;;;;;;;8.17;1.50;;;9.00;99.90;;;;;;4955309;28;20346;-73
2023/10/15 01:40:44;;;;;;;7.23;1.70;;;9.00;99.90;;;;;;4953296;29;20287;-73
2023/10/15 01:42:53;;;;;;;6.30;1.43;;;9.00;99.90;;;;;;4947724;28;20291;-74
2023/10/15 01:45:31;;;;;;;9.10;1.80;;;9.00;99.90;;;;;;4955503;28;20353;-74
2023/10/15 01:53:28;;;;;;;12.00;1.90;;;8.90;99.90;;;;;;4932829;28;20298;-74
2023/10/15 01:55:59;;;;;;;9.07;1.53;;;9.00;99.90;;;;;;4954757;28;20283;-74
2023/10/15 01:58:30;;;;;;;9.40;1.70;;;9.00;99.90;;;;;;4954089;28;20282;-74
2023/10/15 02:01:13;;;;;;;10.80;1.70;;;8.90;99.90;;;;;;4954876;28;20325;-74
2023/10/15 02:03:41;;;;;;;6.37;1.17;;;9.00;99.90;;;;;;4954998;28;20345;-74
2023/10/15 02:06:07;;;;;;;8.57;1.30;;;9.00;99.90;;;;;;4954693;28;20291;-74
2023/10/15 02:08:36;;;;;;;5.63;1.17;;;9.00;99.90;;;;;;4954833;28;20366;-74
2023/10/15 02:11:16;;;;;;;7.07;1.50;;;9.00;99.90;;;;;;4954466;28;20293;-74
2023/10/15 02:13:45;;;;;;;6.20;1.30;;;9.10;99.90;;;;;;4955060;28;20342;-74
2023/10/15 02:16:16;;;;;;;8.57;1.77;;;9.00;99.90;;;;;;4953413;29;20287;-73
2023/10/15 02:18:44;;;;;;;7.70;1.70;;;9.00;99.90;;;;;;4954913;28;20278;-74
2023/10/15 02:21:17;;;;;;;10.17;1.50;;;9.00;99.90;;;;;;4954314;28;20316;-74
2023/10/15 02:23:52;;;;;;;6.57;1.47;;;9.00;99.90;;;;;;4954979;28;20390;-74
2023/10/15 02:26:19;;;;;;;;;;;8.90;99.90;;;;;;4955267;28;20759;-74
2023/10/15 02:28:47;;;;;;;4.33;1.10;;;8.90;99.90;;;;;;4954847;28;19929;-74
2023/10/15 02:31:21;;;;;;;3.13;1.10;;;9.00;99.90;;;;;;4954435;28;20385;-74
2023/10/15 02:33:47;;;;;;;6.00;1.20;;;9.00;99.90;;;;;;4954696;28;20271;-74
2023/10/15 02:36:16;;;;;;;5.43;1.30;;;9.00;99.90;;;;;;4953358;29;20362;-74
2023/10/15 02:38:56;;;;;;;7.73;1.20;;;9.00;99.90;;;;;;4954778;28;20051;-74
2023/10/15 02:41:30;;;;;;;6.77;1.90;;;8.90;99.90;;;;;;4954760;28;20341;-74
2023/10/15 02:43:57;;;;;;;9.35;1.25;;;8.90;99.90;;;;;;4954393;28;20313;-74
2023/10/15 02:46:25;;;;;;;9.50;1.77;;;8.80;99.90;;;;;;4954524;28;20069;-75
2023/10/15 02:48:54;;;;;;;6.37;1.20;;;8.80;99.90;;;;;;4953489;29;20297;-74
2023/10/15 02:51:24;;;;;;;6.63;1.53;;;8.70;99.90;;;;;;4938178;29;20787;-74
2023/10/15 02:53:55;;;;;;;5.60;1.40;;;8.60;99.90;;;;;;4954518;28;20286;-74
2023/10/15 02:56:22;;;;;;;6.57;1.17;;;8.60;99.90;;;;;;4954473;28;20301;-74
2023/10/15 02:58:49;;;;;;;4.67;1.03;;;8.50;99.90;;;;;;4954301;28;20281;-74
2023/10/15 03:01:18;;;;;;;7.63;1.30;;;8.50;99.90;;;;;;4954362;28;20302;-74
2023/10/15 03:03:54;;;;;;;4.47;1.23;;;8.50;99.90;;;;;;4954333;28;20299;-74
2023/10/15 03:06:31;;;;;;;5.63;1.17;;;8.40;99.90;;;;;;4954632;28;20271;-74
2023/10/15 03:08:57;;;;;;;10.07;1.10;;;8.40;99.90;;;;;;4955601;28;20282;-74
2023/10/15 03:11:24;;;;;;;4.37;1.10;;;8.40;99.90;;;;;;4957836;28;20349;-74
2023/10/15 03:13:53;;;;;;;3.20;0.80;;;8.40;99.90;;;;;;4958159;28;20278;-75
2023/10/15 03:16:24;;;;;;;6.43;1.07;;;8.40;99.90;;;;;;4957584;28;20291;-74
2023/10/15 03:18:52;;;;;;;2.90;0.93;;;8.40;99.90;;;;;;4957945;28;20361;-74
2023/10/15 03:21:25;;;;;;;5.23;1.03;;;8.40;99.90;;;;;;4957347;28;20298;-74
2023/10/15 03:23:55;;;;;;;4.70;0.90;;;8.40;99.90;;;;;;4957502;28;20354;-75
2023/10/15 03:26:24;;;;;;;3.13;0.90;;;8.40;99.90;;;;;;4957608;29;20295;-74
2023/10/15 03:28:51;;;;;;;3.80;0.70;;;8.40;99.90;;;;;;4957811;28;20287;-75
2023/10/15 03:31:23;;;;;;;6.30;1.17;;;8.30;99.90;;;;;;4957553;28;20891;-74
2023/10/15 03:36:44;;;;;;;5.07;1.20;;;8.30;99.90;;;;;;4957472;28;20338;-74
2023/10/15 03:39:16;;;;;;;6.73;1.00;;;8.30;99.90;;;;;;4956416;29;20846;-74
2023/10/15 03:41:52;;;;;;;2.93;0.70;;;8.40;99.90;;;;;;4956655;29;20298;-74
2023/10/15 03:44:23;;;;;;;6.47;1.07;;;8.40;99.90;;;;;;4957160;28;20303;-74
2023/10/15 03:46:50;;;;;;;4.63;1.10;;;8.40;99.90;;;;;;4957308;28;20305;-74
2023/10/15 03:49:20;;;;;;;4.87;1.13;;;8.40;99.90;;;;;;4956007;29;20290;-73
2023/10/15 03:51:48;;;;;;;3.23;0.77;;;8.40;99.90;;;;;;4957409;28;20286;-73
2023/10/15 03:54:15;;;;;;;7.50;1.63;;;8.30;99.90;;;;;;4956915;28;20297;-74
2023/10/15 03:56:43;;;;;;;3.77;1.00;;;8.30;99.90;;;;;;4957339;28;20289;-73
2023/10/15 03:59:12;;;;;;;4.20;0.80;;;8.40;99.90;;;;;;4956852;29;20298;-73
2023/10/15 04:01:43;;;;;;;4.40;0.90;;;8.50;99.90;;;;;;4957174;28;20306;-74
2023/10/15 04:04:10;;;;;;;4.43;0.80;;;8.50;99.90;;;;;;4956774;28;20303;-74
2023/10/15 04:06:35;;;;;;;3.83;0.80;;;8.50;99.90;;;;;;4957031;28;20816;-73
2023/10/15 04:11:38;;;;;;;5.97;1.40;;;8.50;99.90;;;;;;4956840;28;20056;-74
2023/10/15 04:16:50;;;;;;;5.50;1.20;;;8.50;99.90;;;;;;4956859;29;20279;-74
2023/10/15 04:19:19;;;;;;;5.27;1.10;;;8.60;99.90;;;;;;4956544;28;20283;-74
2023/10/15 04:21:46;;;;;;;7.43;1.50;;;8.50;99.90;;;;;;4955651;28;20299;-74
2023/10/15 04:24:21;;;;;;;4.97;1.43;;;8.60;99.90;;;;;;4956350;28;20378;-74
2023/10/15 04:26:48;;;;;;;;;;;8.60;99.90;;;;;;4956456;29;20310;-74
2023/10/15 04:29:17;;;;;;;6.73;1.10;;;8.50;99.90;;;;;;4956442;28;20033;-74
2023/10/15 04:31:45;;;;;;;4.90;1.10;;;8.50;99.90;;;;;;4956872;28;20662;-74
2023/10/15 04:34:18;;;;;;;9.03;1.20;;;8.50;99.90;;;;;;4956339;28;20279;-74
2023/10/15 04:36:45;;;;;;;11.47;2.13;;;8.50;99.90;;;;;;4956614;28;20699;-74
2023/10/15 04:39:13;;;;;;;4.47;1.13;;;8.50;99.90;;;;;;4956076;28;20353;-74
2023/10/15 04:41:40;;;;;;;4.60;0.90;;;8.50;99.90;;;;;;4956183;28;20649;-74
2023/10/15 04:44:14;;;;;;;7.97;1.20;;;8.50;99.90;;;;;;4956088;28;20303;-74
2023/10/15 04:46:46;;;;;;;6.77;1.30;;;8.50;99.90;;;;;;4955241;29;20283;-75
2023/10/15 04:49:15;;;;;;;4.90;1.03;;;8.50;99.90;;;;;;4955877;28;20690;-74
2023/10/15 04:51:44;;;;;;;8.63;1.93;;;8.60;99.90;;;;;;4954943;29;20322;-75
2023/10/15 04:54:10;;;;;;;7.10;1.20;;;8.60;99.90;;;;;;4955853;29;20346;-73
2023/10/15 04:56:36;;;;;;;8.83;1.63;;;8.60;99.90;;;;;;4956107;28;20342;-74
2023/10/15 04:59:02;;;;;;;8.53;1.90;;;8.60;99.90;;;;;;4956036;28;20282;-75
2023/10/15 05:01:30;;;;;;;11.43;1.90;;;8.60;99.90;;;;;;4955730;28;20286;-75
2023/10/15 05:03:55;;;;;;;7.17;1.20;;;8.60;99.90;;;;;;4955754;28;20651;-75
2023/10/15 05:06:22;;;;;;;7.77;1.47;;;8.60;99.90;;;;;;4955653;29;20305;-74
2023/10/15 05:08:48;;;;;;;9.57;1.37;;;8.50;99.90;;;;;;4955919;28;20407;-75
2023/10/15 05:11:17;;;;;;;6.77;1.03;;;8.60;99.90;;;;;;4955539;28;20279;-75
2023/10/15 05:13:42;;;;;;;8.00;1.30;;;8.50;99.90;;;;;;4955806;28;20050;-75
2023/10/15 05:16:08;;;;;;;8.20;1.30;;;8.50;99.90;;;;;;4955529;29;20755;-75
2023/10/15 05:18:34;;;;;;;8.17;1.60;;;8.50;99.90;;;;;;4955564;28;20051;-75
2023/10/15 05:21:03;;;;;;;9.40;1.53;;;8.50;99.90;;;;;;4955547;28;20039;-75
2023/10/15 05:23:29;;;;;;;5.27;1.00;;;8.50;99.90;;;;;;4955400;28;20299;-75
2023/10/15 05:25:56;;;;;;;8.13;1.23;;;8.40;99.90;;;;;;4955553;29;20613;-75
2023/10/15 05:28:22;;;;;;;6.17;1.23;;;8.40;99.90;;;;;;4955233;28;20149;-75
2023/10/15 05:30:49;;;;;;;8.57;2.30;;;8.40;99.90;;;;;;4955513;29;20708;-75
2023/10/15 05:33:16;;;;;;;8.20;1.10;;;8.40;99.90;;;;;;4954941;28;20054;-75
2023/10/15 05:35:48;;;;;;;5.23;1.30;;;8.40;99.90;;;;;;4955459;28;20302;-75
2023/10/15 05:38:13;;;;;;;6.17;1.10;;;8.50;99.90;;;;;;4955026;28;20686;-74
2023/10/15 05:40:39;;;;;;;4.40;0.87;;;8.50;99.90;;;;;;4955398;29;20283;-73
2023/10/15 05:43:07;;;;;;;4.73;1.10;;;8.40;99.90;;;;;;4955100;28;20488;-74
2023/10/15 05:45:33;;;;;;;4.73;1.00;;;8.40;99.90;;;;;;4954932;28;20301;-74
2023/10/15 05:47:59;;;;;;;7.23;1.17;;;8.50;99.90;;;;;;4955364;28;20047;-73
2023/10/15 05:50:25;;;;;;;5.87;0.90;;;8.50;99.90;;;;;;4954779;28;20342;-73
2023/10/15 05:52:51;;;;;;;3.30;0.80;;;8.40;99.90;;;;;;4954280;29;20055;-73
2023/10/15 05:55:19;;;;;;;2.43;0.77;;;8.50;99.90;;;;;;4954920;29;20781;-73
2023/10/15 05:57:46;;;;;;;3.20;0.80;;;8.40;99.90;;;;;;4954040;29;20051;-73
2023/10/15 06:00:18;;;;;;;3.63;0.87;;;8.40;99.90;;;;;;4954870;28;20854;-74
2023/10/15 06:02:48;;;;;;;1.47;0.67;;;8.30;99.90;;;;;;4955019;28;20333;-73
2023/10/15 06:05:14;;;;;;;2.73;0.70;;;8.30;99.90;;;;;;4955018;28;20302;-73
2023/10/15 06:07:41;;;;;;;3.87;0.70;;;8.30;99.90;;;;;;4954889;29;20369;-73
2023/10/15 06:10:11;;;;;;;2.23;0.70;;;8.40;99.90;;;;;;4954990;28;20357;-73
2023/10/15 06:12:41;;;;;;;6.07;1.20;;;8.40;99.90;;;;;;4954643;28;20770;-73
2023/10/15 06:15:08;;;;;;;4.43;1.00;;;8.40;99.90;;;;;;4954890;28;20290;-73
2023/10/15 06:17:34;;;;;;;2.23;0.60;;;8.30;99.90;;;;;;4954659;28;20281;-73
2023/10/15 06:20:12;;;;;;;2.53;0.97;;;8.30;99.90;;;;;;4955057;28;20278;-74
2023/10/15 06:22:48;;;;;;;5.13;1.10;;;8.30;99.90;;;;;;4954564;28;20758;-73
2023/10/15 06:25:17;;;;;;;6.23;1.23;;;8.30;99.90;;;;;;4954720;28;20289;-73
2023/10/15 06:27:43;;;;;;;6.23;1.13;;;8.30;99.90;;;;;;4954808;28;20802;-74
2023/10/15 06:30:14;;;;;;;5.77;1.27;;;8.30;99.90;;;;;;4954857;28;20287;-74
2023/10/15 06:32:44;;;;;;;5.63;1.40;;;8.30;99.90;;;;;;4954640;28;20047;-74
2023/10/15 06:35:14;;;;;;;4.83;1.00;;;8.30;99.90;;;;;;4954901;28;20326;-74
2023/10/15 06:37:41;;;;;;;5.70;0.90;;;8.40;99.90;;;;;;4954289;28;20805;-74
2023/10/15 06:40:08;;;;;;;4.20;1.17;;;8.30;99.90;;;;;;4954509;28;20330;-74
2023/10/15 06:42:35;;;;;;;6.40;1.80;;;8.40;99.90;;;;;;4954597;28;20282;-74
2023/10/15 06:45:02;;;;;;;8.70;1.87;;;8.40;99.90;;;;;;4956799;29;20310;-74
2023/10/15 06:47:29;;;;;;;4.37;1.00;;;8.40;99.90;;;;;;4958117;28;20302;-74
2023/10/15 06:49:55;;;;;;;7.20;1.30;;;8.20;99.90;;;;;;4957241;29;20291;-75
2023/10/15 06:52:21;;;;;;;8.70;1.20;;;8.20;99.90;;;;;;4957847;29;20286;-74
2023/10/15 06:54:48;;;;;;;10.10;2.17;;;8.30;99.90;;;;;;4958472;29;20286;-74
2023/10/15 06:57:16;;;;;;;3.87;1.10;;;8.30;99.90;;;;;;4957623;29;20066;-74
2023/10/15 06:59:43;;;;;;;10.67;2.00;;;8.20;99.90;;;;;;4957147;29;20767;-75
2023/10/15 07:02:09;;;;;;;8.13;1.20;;;8.10;99.90;;;;;;4958293;28;20283;-74
2023/10/15 07:04:35;;;;;;;10.27;1.40;;;8.10;99.90;;;;;;4957860;28;20398;-75
2023/10/15 07:07:00;;;;;;;7.63;2.10;;;8.00;99.90;;;;;;4957998;29;20802;-75
2023/10/15 07:09:27;;;;;;;8.53;1.50;;;8.00;99.90;;;;;;4957915;29;20043;-75
2023/10/15 07:11:53;;;;;;;7.73;1.30;;;7.90;99.90;;;;;;4958125;28;20067;-75
2023/10/15 07:14:19;;;;;;;6.67;1.20;;;7.90;99.90;;;;;;4957951;28;20286;-75
2023/10/15 07:16:45;;;;;;;6.20;1.13;;;7.90;99.90;;;;;;4957607;28;20327;-75
2023/10/15 07:19:11;;;;;;;7.10;0.90;;;7.80;99.90;;;;;;4957849;28;20317;-75
2023/10/15 07:21:37;;;;;;;8.03;1.20;;;7.80;99.90;;;;;;4957142;28;20137;-75
2023/10/15 07:24:05;;;;;;;5.67;0.83;;;7.80;99.90;;;;;;4956834;29;20736;-76
2023/10/15 07:26:31;;;;;;;8.40;1.60;;;7.80;99.90;;;;;;4957632;28;20051;-75
2023/10/15 07:28:56;;;;;;;8.47;1.43;;;7.80;99.90;;;;;;4957772;29;20381;-75
2023/10/15 07:31:22;;;;;;;6.37;1.10;;;8.00;99.90;;;;;;4957698;29;20482;-75
2023/10/15 07:33:48;;;;;;;3.23;1.00;;;8.00;99.90;;;;;;4957328;29;20043;-74
2023/10/15 07:36:13;;;;;;;6.23;1.30;;;8.20;99.90;;;;;;4957473;28;20051;-75
2023/10/15 07:38:39;;;;;;;7.87;1.33;;;8.30;99.90;;;;;;4957365;28;20082;-75
2023/10/15 07:41:06;;;;;;;8.50;1.37;;;8.30;99.90;;;;;;4957677;29;20492;-75
2023/10/15 07:43:31;;;;;;;7.37;1.10;;;8.40;99.90;;;;;;4990817;28;20042;-75
2023/10/15 07:45:59;;;;;;;6.10;1.23;;;8.40;99.90;;;;;;4995326;28;20331;-75
2023/10/15 07:48:24;;;;;;;7.80;1.53;;;8.40;99.90;;;;;;4996273;28;20050;-76
2023/10/15 07:50:51;;;;;;;10.20;1.60;;;8.40;99.90;;;;;;4978626;28;20344;-78
2023/10/15 07:53:16;;;;;;;7.07;2.00;;;8.50;99.90;;;;;;4996219;28;20051;-79
2023/10/15 07:55:42;;;;;;;8.37;2.93;;;8.60;99.90;;;;;;4994530;28;20281;-79
2023/10/15 07:58:09;;;;;;;8.27;4.27;;;8.70;99.90;;;;;;4996670;28;20045;-81
2023/10/15 08:00:35;;;;;;;14.47;3.80;;;8.80;99.90;;;;;;4995715;28;20051;-80
2023/10/15 08:03:01;;;;;;;8.53;3.40;;;8.90;99.90;;;;;;4995804;28;20289;-79
2023/10/15 08:05:31;;;;;;;9.17;1.60;;;9.10;99.90;;;;;;4995797;28;20134;-80
2023/10/15 08:07:57;;;;;;;8.10;1.40;;;9.20;99.90;;;;;;4996108;28;20303;-81
2023/10/15 08:10:24;;;;;;;6.20;1.30;;;9.30;99.90;;;;;;4995842;28;20368;-81
2023/10/15 08:12:51;;;;;;;8.83;1.53;;;9.50;99.90;;;;;;4995536;28;20286;-79
2023/10/15 08:15:18;;;;;;;6.50;1.30;;;9.60;99.90;;;;;;4995937;28;20285;-79
2023/10/15 08:17:44;;;;;;;7.00;1.83;;;9.60;99.90;;;;;;4994174;28;20700;-79
2023/10/15 08:20:10;;;;;;;4.47;1.00;;;9.50;99.90;;;;;;4995482;28;20290;-76
2023/10/15 08:22:37;;;;;;;6.67;1.20;;;9.40;99.90;;;;;;4995578;28;20058;-82
2023/10/15 08:25:03;;;;;;;4.07;1.23;;;9.30;99.90;;;;;;4996411;28;20301;-81
2023/10/15 08:27:28;;;;;;;3.77;1.27;;;9.30;99.90;;;;;;4994262;28;20281;-81
2023/10/15 08:29:54;;;;;;;4.87;1.00;;;9.30;99.90;;;;;;4993999;28;20282;-81
2023/10/15 08:32:20;;;;;;;3.17;1.00;;;9.20;99.90;;;;;;4995428;28;20526;-81
2023/10/15 08:34:48;;;;;;;7.30;1.03;;;9.20;99.90;;;;;;4994010;28;20137;-81
2023/10/15 08:37:14;;;;;;;4.73;1.17;;;9.20;99.90;;;;;;4995591;28;20783;-81
2023/10/15 08:39:40;;;;;;;3.43;1.20;;;9.10;99.90;;;;;;4995384;28;20351;-78
2023/10/15 08:42:28;;;;;;;4.67;1.10;;;9.10;99.90;;;;;;4996702;28;20355;-81
2023/10/15 08:44:57;;;;;;;4.20;1.63;;;9.00;99.90;;;;;;4988797;28;20310;-81
2023/10/15 08:47:25;;;;;;;11.60;7.43;;;9.00;99.90;;;;;;4975863;28;20453;-82
2023/10/15 08:49:52;;;;;;;7.93;2.37;;;9.00;99.90;;;;;;4975779;28;20293;-83
2023/10/15 08:52:19;;;;;;;5.97;1.33;;;9.10;99.90;;;;;;4975828;28;20750;-82
2023/10/15 08:54:46;;;;;;;9.37;2.07;;;9.10;99.90;;;;;;4975499;28;20754;-84
2023/10/15 08:57:14;;;;;;;8.37;1.90;;;9.10;99.90;;;;;;4975855;28;20288;-83
2023/10/15 08:59:41;;;;;;;6.70;1.30;;;9.20;99.90;;;;;;4975234;28;20344;-81
2023/10/15 09:02:09;;;;;;;7.70;1.60;;;9.30;99.90;;;;;;4975589;28;20363;-84
2023/10/15 09:04:35;;;;;;;7.20;2.03;;;9.30;99.90;;;;;;4975536;28;20306;-80
2023/10/15 09:07:01;;;;;;;8.07;1.67;;;9.40;99.90;;;;;;4974642;28;20282;-79
2023/10/15 09:09:32;;;;;;;8.40;1.97;;;9.40;99.90;;;;;;4975589;28;20274;-78
2023/10/15 09:11:58;;;;;;;6.03;1.47;;;9.50;99.90;;;;;;4974901;28;20705;-82
2023/10/15 09:14:44;;;;;;;8.23;1.60;;;9.50;99.90;;;;;;4975289;28;20334;-81
2023/10/15 09:17:11;;;;;;;9.63;1.75;;;9.60;99.90;;;;;;4975650;28;20357;-83
2023/10/15 09:19:46;;;;;;;6.70;1.37;;;9.70;99.90;;;;;;4975377;28;20463;-86
2023/10/15 09:22:15;;;;;;;12.00;2.30;;;9.90;99.90;;;;;;4975031;28;20294;-73
2023/10/15 09:24:45;;;;;;;7.57;1.87;;;10.10;99.90;;;;;;4974543;28;20309;-71
2023/10/15 09:27:13;;;;;;;11.60;1.97;;;10.20;99.90;;;;;;4975337;28;20298;-72
2023/10/15 09:29:39;;;;;;;7.73;1.60;;;10.30;99.90;;;;;;4975037;28;20790;-72
2023/10/15 09:32:05;;;;;;;9.87;2.03;;;10.30;99.90;;;;;;4974713;28;20285;-73
2023/10/15 09:34:33;;;;;;;9.40;1.90;;;10.30;99.90;;;;;;4974855;28;20317;-75
2023/10/15 09:36:59;;;;;;;7.47;1.93;;;10.30;99.90;;;;;;4973417;28;20763;-75
2023/10/15 09:39:28;;;;;;;9.70;2.17;;;10.30;99.90;;;;;;4974592;28;20337;-73
2023/10/15 09:42:02;;;;;;;16.57;3.23;;;10.30;99.90;;;;;;4974408;28;20050;-75
2023/10/15 09:44:28;;;;;;;27.83;4.43;;;10.20;99.90;;;;;;4974759;28;20297;-77
2023/10/15 09:46:56;;;;;;;10.27;1.83;;;9.90;99.90;;;;;;4973102;28;20773;-73
2023/10/15 09:49:23;;;;;;;11.10;2.07;;;9.60;99.90;;;;;;4973422;28;20298;-75
2023/10/15 09:51:49;;;;;;;7.27;1.63;;;9.40;99.90;;;;;;4972909;28;20361;-81
2023/10/15 09:54:19;;;;;;;12.10;2.27;;;9.20;99.90;;;;;;4974597;28;20286;-74
2023/10/15 09:56:49;;;;;;;10.40;2.10;;;9.10;99.90;;;;;;4974338;28;20308;-74
2023/10/15 09:59:15;;;;;;;7.10;2.10;;;9.10;99.90;;;;;;4974367;28;20282;-83
2023/10/15 10:01:49;;;;;;;12.33;2.83;;;9.10;99.90;;;;;;4974346;28;20658;-82
2023/10/15 10:04:40;;;;;;;7.53;1.63;;;9.00;99.90;;;;;;4974201;28;20338;-80
2023/10/15 10:07:20;;;;;;;10.33;2.50;;;9.00;99.90;;;;;;4973243;28;20693;-88
2023/10/15 10:10:04;;;;;;;13.67;1.90;;;9.10;99.90;;;;;;4974278;28;20337;-83
2023/10/15 10:13:05;;;;;;;16.33;2.10;;;9.20;99.90;;;;;;4974260;28;20278;-79
2023/10/15 10:15:49;;;;;;;9.37;1.57;;;9.40;99.90;;;;;;4974339;28;20337;-81
2023/10/15 10:18:15;;;;;;;12.27;1.77;;;9.60;99.90;;;;;;4972563;28;20298;-73
2023/10/15 10:20:47;;;;;;;7.90;1.30;;;9.80;99.90;;;;;;4974523;28;20278;-84
2023/10/15 10:23:14;;;;;;;10.03;1.63;;;9.90;99.90;;;;;;4973888;28;21096;-78
2023/10/15 10:25:44;;;;;;;6.83;1.30;;;9.90;99.90;;;;;;4974228;28;20298;-79
2023/10/15 10:28:15;;;;;;;5.63;1.23;;;9.90;99.90;;;;;;4973956;28;20286;-81
2023/10/15 10:30:57;;;;;;;5.50;1.13;;;9.80;99.90;;;;;;4974244;28;20278;-82
2023/10/15 10:33:41;;;;;;;6.70;1.50;;;9.70;99.90;;;;;;4972770;28;20286;-84
2023/10/15 10:36:14;;;;;;;6.43;1.00;;;9.70;99.90;;;;;;4974010;28;20294;-82
2023/10/15 10:38:59;;;;;;;3.83;1.07;;;9.60;99.90;;;;;;4974203;28;20297;-85
2023/10/15 10:41:54;;;;;;;6.03;1.50;;;9.60;99.90;;;;;;4974175;28;20293;-81
2023/10/15 10:44:23;;;;;;;4.50;1.27;;;9.50;99.90;;;;;;4973102;28;20133;-83
2023/10/15 10:46:50;;;;;;;4.90;1.00;;;9.50;99.90;;;;;;4972919;28;20658;-82
2023/10/15 10:49:16;;;;;;;11.67;1.53;;;9.50;99.90;;;;;;4975116;28;20286;-82
2023/10/15 10:52:02;;;;;;;6.07;1.40;;;9.50;99.90;;;;;;4977050;28;20325;-81
2023/10/15 10:54:28;;;;;;;;;;;9.60;99.90;;;;;;4974256;28;20278;-76
2023/10/15 10:56:56;;;;;;;8.80;1.37;;;9.60;99.90;;;;;;4973838;28;20279;-80
2023/10/15 10:59:22;;;;;;;8.13;1.40;;;9.60;99.90;;;;;;4973912;28;20491;-76
2023/10/15 11:01:48;;;;;;;8.97;1.80;;;9.70;99.90;;;;;;4973955;28;20293;-83
2023/10/15 11:04:15;;;;;;;5.83;1.50;;;9.80;99.90;;;;;;4972319;28;20383;-77
2023/10/15 11:06:45;;;;;;;8.63;1.50;;;9.80;99.90;;;;;;4973753;28;20282;-79
2023/10/15 11:09:22;;;;;;;7.13;1.30;;;9.80;99.90;;;;;;4973231;28;20774;-80
2023/10/15 11:11:47;;;;;;;10.17;2.00;;;9.70;99.90;;;;;;4972421;28;20340;-80
2023/10/15 11:14:14;;;;;;;7.10;1.43;;;9.80;99.90;;;;;;4971768;28;20393;-80
2023/10/15 11:16:42;;;;;;;7.77;1.53;;;9.70;99.90;;;;;;4973633;28;20432;-80
2023/10/15 11:19:29;;;;;;;5.47;1.20;;;9.70;99.90;;;;;;4973140;28;20294;-80
2023/10/15 11:21:56;;;;;;;5.73;1.50;;;9.70;99.90;;;;;;4973524;28;20298;-79
2023/10/15 11:24:23;;;;;;;7.10;1.40;;;9.70;99.90;;;;;;4973951;28;20368;-81
2023/10/15 11:26:50;;;;;;;6.07;1.60;;;9.70;99.90;;;;;;4973869;28;20297;-80
2023/10/15 11:29:20;;;;;;;5.10;1.07;;;9.70;99.90;;;;;;4973898;28;20325;-80
2023/10/15 11:31:50;;;;;;;5.63;1.20;;;9.70;99.90;;;;;;4977000;28;20377;-80
2023/10/15 11:34:19;;;;;;;6.10;1.60;;;9.80;99.90;;;;;;4977112;28;20365;-80
2023/10/15 11:36:48;;;;;;;7.00;1.57;;;9.80;99.90;;;;;;4977133;28;20286;-80
2023/10/15 11:39:18;;;;;;;5.30;1.27;;;9.90;99.90;;;;;;4976955;28;20282;-80
2023/10/15 11:41:49;;;;;;;6.93;1.10;;;9.90;99.90;;;;;;4977326;28;20336;-81
2023/10/15 11:44:16;;;;;;;7.17;1.43;;;10.00;99.90;;;;;;4976623;28;20302;-80
2023/10/15 11:46:41;;;;;;;7.13;1.90;;;10.00;99.90;;;;;;4976900;28;20778;-80
2023/10/15 11:49:09;;;;;;;6.90;1.80;;;10.10;99.90;;;;;;4976807;28;20293;-80
2023/10/15 11:51:35;;;;;;;9.97;2.40;;;10.20;99.90;;;;;;4977102;28;20051;-80
2023/10/15 11:54:01;;;;;;;7.30;1.70;;;10.40;99.90;;;;;;4976544;28;20781;-80
2023/10/15 11:56:34;;;;;;;6.33;1.50;;;10.60;99.90;;;;;;4976683;28;20296;-78
2023/10/15 11:59:00;;;;;;;10.73;1.50;;;10.60;99.90;;;;;;4976482;28;20110;-80
2023/10/15 12:01:28;;;;;;;6.77;2.17;;;10.40;99.90;;;;;;4976800;28;20290;-79
2023/10/15 12:03:57;;;;;;;8.83;2.13;;;10.30;99.90;;;;;;4976616;28;20574;-81
2023/10/15 12:06:23;;;;;;;9.27;2.23;;;10.20;99.90;;;;;;4976451;28;20286;-81
2023/10/15 12:08:49;;;;;;;7.17;1.43;;;10.00;99.90;;;;;;4975520;28;20332;-81
2023/10/15 12:11:18;;;;;;;5.67;1.20;;;9.90;99.90;;;;;;4975903;28;20508;-80
2023/10/15 12:13:44;;;;;;;7.20;1.37;;;9.90;99.90;;;;;;4959305;28;20050;-80
2023/10/15 12:16:13;;;;;;;5.87;1.47;;;9.90;99.90;;;;;;4976235;28;20293;-80
2023/10/15 12:18:39;;;;;;;6.53;1.40;;;9.90;99.90;;;;;;4975204;28;20322;-80
2023/10/15 12:21:06;;;;;;;5.50;1.30;;;9.90;99.90;;;;;;4976127;28;20706;-79
2023/10/15 12:23:31;;;;;;;5.57;1.20;;;9.90;99.90;;;;;;4976086;28;20097;-80
2023/10/15 12:25:57;;;;;;;7.20;1.73;;;9.90;99.90;;;;;;4976054;28;20666;-79
2023/10/15 12:28:23;;;;;;;6.67;1.57;;;10.00;99.90;;;;;;4975867;28;20621;-80
2023/10/15 12:30:49;;;;;;;4.90;1.10;;;9.90;99.90;;;;;;4976049;28;20126;-80
2023/10/15 12:33:15;;;;;;;7.60;2.37;;;10.00;99.90;;;;;;4975993;28;20093;-79
2023/10/15 12:35:43;;;;;;;5.50;1.50;;;10.10;99.90;;;;;;4975151;28;20058;-79
2023/10/15 12:38:16;;;;;;;7.97;1.67;;;10.30;99.90;;;;;;4975802;28;20774;-79
2023/10/15 12:40:45;;;;;;;7.60;1.67;;;10.50;99.90;;;;;;4975507;28;20413;-79
2023/10/15 12:43:17;;;;;;;11.27;2.40;;;10.50;99.90;;;;;;4974408;28;20290;-79
2023/10/15 12:45:46;;;;;;;5.93;1.40;;;10.60;99.90;;;;;;4975996;28;20678;-80
2023/10/15 12:48:13;;;;;;;9.37;4.10;;;10.60;99.90;;;;;;4975595;28;20294;-79
2023/10/15 12:50:38;;;;;;;8.70;2.50;;;10.60;99.90;;;;;;4975688;28;20292;-80
2023/10/15 12:53:04;;;;;;;6.93;1.60;;;10.50;99.90;;;;;;4975645;28;20282;-79
2023/10/15 12:55:30;;;;;;;6.63;1.50;;;10.40;99.90;;;;;;4975532;28;20559;-80
2023/10/15 12:57:55;;;;;;;7.33;1.57;;;10.40;99.90;;;;;;4980953;28;20446;-80
2023/10/15 13:00:21;;;;;;;11.13;3.73;;;10.40;99.90;;;;;;4978997;28;20406;-78
2023/10/15 13:02:54;;;;;;;8.47;1.60;;;10.50;99.90;;;;;;4975646;28;20043;-80
2023/10/15 13:05:25;;;;;;;4.80;1.20;;;10.50;99.90;;;;;;4975215;28;20043;-80
2023/10/15 13:07:53;;;;;;;9.00;1.97;;;10.50;99.90;;;;;;4975312;28;20288;-80
2023/10/15 13:10:20;;;;;;;20.43;9.40;;;10.50;99.90;;;;;;4975242;28;20308;-80
2023/10/15 13:12:51;;;;;;;15.17;6.30;;;10.50;99.90;;;;;;4975461;28;20290;-80
2023/10/15 13:15:21;;;;;;;19.77;7.17;;;10.50;99.90;;;;;;4975084;28;20271;-80
2023/10/15 13:17:50;;;;;;;20.17;5.50;;;10.50;99.90;;;;;;4975220;28;20289;-80
2023/10/15 13:20:17;;;;;;;15.27;6.37;;;10.40;99.90;;;;;;4974925;28;20697;-80
2023/10/15 13:22:44;;;;;;;22.47;10.53;;;10.40;99.90;;;;;;4975301;28;20334;-80